Time;durP1;ratioP1;P1;durP2;ratioP2;P2;SDS_P1;SDS_P2;PMS_P1;PMS_P2;Temp;Humidity;BMP_temperature;BMP_pressure;BME280_temperature;BME280_humidity;BME280_pressure;Samples;Min_cycle;Max_cycle;Signal;HPM_P1;HPM_P2
2022/04/28 00:01:04;;;;;;;11.23;4.18;;;;;;;;;;6183432;23;20013;-85
2022/04/28 00:03:30;;;;;;;8.50;3.78;;;;;;;;;;6183527;23;20013;-85
2022/04/28 00:05:57;;;;;;;12.68;4.30;;;;;;;;;;6183145;23;20008;-85
2022/04/28 00:08:23;;;;;;;11.13;3.58;;;;;;;;;;6158717;23;20013;-84
2022/04/28 00:10:50;;;;;;;9.48;3.55;;;;;;;;;;6158196;23;20013;-85
2022/04/28 00:13:17;;;;;;;12.25;3.22;;;;;;;;;;6158567;23;20017;-85
2022/04/28 00:15:43;;;;;;;11.85;3.13;;;;;;;;;;6183240;23;20021;-84
2022/04/28 00:18:09;;;;;;;12.85;3.20;;;;;;;;;;6183438;23;20017;-86
2022/04/28 00:20:35;;;;;;;10.80;3.20;;;;;;;;;;6184993;23;20434;-85
2022/04/28 00:23:01;;;;;;;10.55;3.13;;;;;;;;;;6183441;23;20017;-85
2022/04/28 00:25:27;;;;;;;10.05;3.10;;;;;;;;;;6158084;23;20338;-85
2022/04/28 00:27:54;;;;;;;12.20;3.17;;;;;;;;;;6184854;23;20013;-85
2022/04/28 00:30:20;;;;;;;9.80;3.13;;;;;;;;;;6183827;23;20041;-85
2022/04/28 00:32:46;;;;;;;11.73;3.15;;;;;;;;;;6186514;23;20037;-85
2022/04/28 00:35:12;;;;;;;11.57;3.10;;;;;;;;;;6161719;23;20161;-84
2022/04/28 00:37:38;;;;;;;10.18;3.35;;;;;;;;;;6186638;23;20020;-86
2022/04/28 00:40:05;;;;;;;8.57;2.78;;;;;;;;;;6186263;23;20013;-85
2022/04/28 00:42:31;;;;;;;8.70;2.90;;;;;;;;;;6186557;23;20013;-85
2022/04/28 00:44:57;;;;;;;10.57;2.97;;;;;;;;;;6161345;23;20031;-85
2022/04/28 00:50:38;;;;;;;8.38;2.58;;;;;;;;;;6186575;23;20024;-85
2022/04/28 00:52:54;;;;;;;11.65;2.75;;;;;;;;;;6186522;23;20013;-85
2022/04/28 00:55:20;;;;;;;7.97;3.30;;;;;;;;;;6186315;23;20055;-85
2022/04/28 00:57:46;;;;;;;9.18;2.75;;;;;;;;;;6186501;23;20028;-84
2022/04/28 01:00:13;;;;;;;8.27;3.13;;;;;;;;;;6161483;23;20017;-85
2022/04/28 01:02:39;;;;;;;11.10;2.90;;;;;;;;;;6188257;23;20013;-85
2022/04/28 01:05:05;;;;;;;10.73;3.30;;;;;;;;;;6186455;23;20017;-85
2022/04/28 01:07:31;;;;;;;8.18;2.80;;;;;;;;;;6186336;23;20446;-87
2022/04/28 01:09:57;;;;;;;10.38;2.70;;;;;;;;;;6186140;23;20015;-85
2022/04/28 01:12:24;;;;;;;7.65;2.55;;;;;;;;;;6186571;23;20008;-85
2022/04/28 01:14:50;;;;;;;8.63;2.72;;;;;;;;;;6186179;23;20072;-85
2022/04/28 01:17:16;;;;;;;10.85;3.00;;;;;;;;;;6161686;23;20017;-85
2022/04/28 01:19:43;;;;;;;11.30;3.10;;;;;;;;;;6161269;23;20017;-86
2022/04/28 01:22:09;;;;;;;12.07;2.95;;;;;;;;;;6161317;23;20055;-85
2022/04/28 01:24:36;;;;;;;11.82;3.30;;;;;;;;;;6186216;23;20017;-85
2022/04/28 01:27:03;;;;;;;11.30;3.80;;;;;;;;;;6186326;23;20020;-86
2022/04/28 01:29:31;;;;;;;9.00;3.05;;;;;;;;;;6186288;23;20448;-85
2022/04/28 01:31:57;;;;;;;11.93;3.63;;;;;;;;;;6186238;23;20385;-85
2022/04/28 01:34:23;;;;;;;9.77;3.00;;;;;;;;;;6186295;23;20044;-86
2022/04/28 01:36:49;;;;;;;11.85;3.08;;;;;;;;;;6186129;23;20035;-86
2022/04/28 01:39:15;;;;;;;11.52;3.67;;;;;;;;;;6161686;23;20021;-86
2022/04/28 01:41:42;;;;;;;8.15;3.08;;;;;;;;;;6160532;23;20100;-85
2022/04/28 01:44:09;;;;;;;10.88;3.53;;;;;;;;;;6159772;23;20570;-86
2022/04/28 01:46:35;;;;;;;11.38;3.53;;;;;;;;;;6184439;23;20335;-85
2022/04/28 01:49:01;;;;;;;10.07;2.78;;;;;;;;;;6184718;23;20017;-85
2022/04/28 01:56:56;;;;;;;9.65;2.63;;;;;;;;;;6184403;23;20451;-86
2022/04/28 01:59:22;;;;;;;8.65;3.35;;;;;;;;;;6159876;23;20067;-86
2022/04/28 02:01:48;;;;;;;9.98;3.30;;;;;;;;;;6184216;23;20017;-86
2022/04/28 02:04:14;;;;;;;8.35;3.30;;;;;;;;;;6184626;23;20017;-86
2022/04/28 02:06:41;;;;;;;9.30;2.90;;;;;;;;;;6159558;23;20009;-86
2022/04/28 02:09:07;;;;;;;15.57;4.22;;;;;;;;;;6159729;23;20098;-86
2022/04/28 02:11:33;;;;;;;11.50;3.30;;;;;;;;;;6184333;23;20072;-85
2022/04/28 02:13:59;;;;;;;11.05;3.05;;;;;;;;;;6184467;23;20017;-86
2022/04/28 02:16:24;;;;;;;9.07;2.85;;;;;;;;;;6184280;23;20088;-85
2022/04/28 02:18:50;;;;;;;8.88;2.80;;;;;;;;;;6184477;23;20017;-85
2022/04/28 02:21:17;;;;;;;8.95;3.00;;;;;;;;;;6184099;23;20092;-85
2022/04/28 02:23:43;;;;;;;9.02;3.05;;;;;;;;;;6184534;23;20312;-85
2022/04/28 02:26:09;;;;;;;12.88;3.38;;;;;;;;;;6184195;23;20079;-86
2022/04/28 02:28:35;;;;;;;9.68;3.20;;;;;;;;;;6184364;23;20025;-85
2022/04/28 02:31:01;;;;;;;12.18;3.10;;;;;;;;;;6184098;23;20016;-86
2022/04/28 02:33:27;;;;;;;11.82;3.30;;;;;;;;;;6159407;23;20019;-86
2022/04/28 02:35:53;;;;;;;6.60;2.75;;;;;;;;;;6184129;23;20197;-86
2022/04/28 02:38:19;;;;;;;12.10;3.38;;;;;;;;;;6159597;23;20016;-86
2022/04/28 02:40:45;;;;;;;11.15;3.08;;;;;;;;;;6183972;23;20019;-85
2022/04/28 02:43:11;;;;;;;8.57;2.78;;;;;;;;;;6184286;23;20017;-86
2022/04/28 02:45:37;;;;;;;11.00;3.10;;;;;;;;;;6183950;23;20024;-86
2022/04/28 02:48:03;;;;;;;10.27;2.83;;;;;;;;;;6184589;23;20014;-86
2022/04/28 02:50:29;;;;;;;10.88;2.97;;;;;;;;;;6183854;23;20020;-85
2022/04/28 02:52:55;;;;;;;8.80;2.88;;;;;;;;;;6184097;23;20009;-85
2022/04/28 02:55:21;;;;;;;7.65;2.72;;;;;;;;;;6159244;23;20350;-85
2022/04/28 02:57:47;;;;;;;8.90;3.05;;;;;;;;;;6184070;23;20020;-85
2022/04/28 03:00:13;;;;;;;12.65;3.22;;;;;;;;;;6185945;23;20045;-85
2022/04/28 03:02:39;;;;;;;10.52;2.83;;;;;;;;;;6159007;23;20457;-85
2022/04/28 03:05:06;;;;;;;10.15;2.90;;;;;;;;;;6183970;23;20473;-85
2022/04/28 03:10:46;;;;;;;7.20;3.70;;;;;;;;;;6183906;23;20091;-85
2022/04/28 03:13:13;;;;;;;8.90;2.97;;;;;;;;;;6159189;23;20015;-85
2022/04/28 03:15:39;;;;;;;12.27;3.40;;;;;;;;;;6183724;23;20158;-86
2022/04/28 03:18:05;;;;;;;7.47;3.33;;;;;;;;;;6184006;23;20013;-86
2022/04/28 03:20:31;;;;;;;11.48;3.22;;;;;;;;;;6159063;23;20067;-86
2022/04/28 03:22:57;;;;;;;9.73;3.55;;;;;;;;;;6183536;23;20013;-85
2022/04/28 03:25:23;;;;;;;8.40;2.88;;;;;;;;;;6183700;23;20060;-85
2022/04/28 03:27:49;;;;;;;9.57;3.08;;;;;;;;;;6183618;23;20446;-85
2022/04/28 03:30:15;;;;;;;11.23;2.97;;;;;;;;;;6183716;23;20071;-85
2022/04/28 03:32:42;;;;;;;8.43;2.97;;;;;;;;;;6183343;23;20040;-86
2022/04/28 03:35:10;;;;;;;8.85;3.28;;;;;;;;;;6158965;23;20028;-85
2022/04/28 03:37:36;;;;;;;8.50;2.70;;;;;;;;;;6158665;23;20013;-86
2022/04/28 03:40:03;;;;;;;10.23;3.20;;;;;;;;;;6183710;23;20443;-86
2022/04/28 03:42:29;;;;;;;12.68;3.28;;;;;;;;;;6183519;23;20024;-86
2022/04/28 03:44:55;;;;;;;10.05;3.30;;;;;;;;;;6183652;23;20013;-86
2022/04/28 03:47:21;;;;;;;8.43;3.47;;;;;;;;;;6183421;23;20024;-88
2022/04/28 03:49:47;;;;;;;10.93;3.28;;;;;;;;;;6158775;23;20020;-85
2022/04/28 03:52:13;;;;;;;9.27;3.13;;;;;;;;;;6183433;23;20042;-86
2022/04/28 03:54:39;;;;;;;7.80;2.50;;;;;;;;;;6183565;23;20104;-85
2022/04/28 03:57:06;;;;;;;11.60;3.72;;;;;;;;;;6183436;23;20009;-85
2022/04/28 03:59:32;;;;;;;9.27;2.80;;;;;;;;;;6158709;23;20013;-85
2022/04/28 04:01:58;;;;;;;10.05;2.85;;;;;;;;;;6183418;23;20088;-85
2022/04/28 04:04:24;;;;;;;9.80;2.70;;;;;;;;;;6183446;23;20439;-85
2022/04/28 04:06:50;;;;;;;9.93;2.88;;;;;;;;;;6182844;23;20467;-85
2022/04/28 04:09:16;;;;;;;10.70;3.00;;;;;;;;;;6183467;23;20023;-85
2022/04/28 04:11:42;;;;;;;12.90;3.17;;;;;;;;;;6158098;23;20009;-85
2022/04/28 04:14:08;;;;;;;8.77;3.10;;;;;;;;;;6183443;23;20013;-85
2022/04/28 04:16:34;;;;;;;10.27;3.28;;;;;;;;;;6183222;23;20063;-84
2022/04/28 04:19:00;;;;;;;10.30;3.08;;;;;;;;;;6158601;23;20017;-85
2022/04/28 04:21:26;;;;;;;10.27;2.95;;;;;;;;;;6183067;23;20021;-85
2022/04/28 04:23:52;;;;;;;9.70;3.20;;;;;;;;;;6158601;23;20447;-86
2022/04/28 04:26:18;;;;;;;9.07;3.35;;;;;;;;;;6158244;23;20013;-86
2022/04/28 04:28:44;;;;;;;9.98;3.30;;;;;;;;;;6183638;23;20016;-86
2022/04/28 04:33:54;;;;;;;10.63;3.55;;;;;;;;;;6183492;23;20021;-85
2022/04/28 04:36:21;;;;;;;8.63;3.20;;;;;;;;;;6183706;23;20043;-85
2022/04/28 04:38:47;;;;;;;7.93;3.05;;;;;;;;;;6183285;23;20470;-86
2022/04/28 04:41:13;;;;;;;14.20;3.03;;;;;;;;;;6183364;23;20088;-86
2022/04/28 04:43:40;;;;;;;10.73;3.72;;;;;;;;;;6183182;23;20013;-85
2022/04/28 04:46:06;;;;;;;6.97;3.17;;;;;;;;;;6183284;23;20021;-85
2022/04/28 04:48:32;;;;;;;11.02;3.88;;;;;;;;;;6183068;23;20059;-85
2022/04/28 04:50:58;;;;;;;10.48;3.35;;;;;;;;;;6183226;23;20013;-85
2022/04/28 04:53:24;;;;;;;8.80;2.90;;;;;;;;;;6183124;23;20084;-85
2022/04/28 04:55:50;;;;;;;10.02;3.50;;;;;;;;;;6183359;23;20450;-86
2022/04/28 04:58:16;;;;;;;12.25;4.50;;;;;;;;;;6183092;23;20040;-86
2022/04/28 05:00:42;;;;;;;9.70;3.10;;;;;;;;;;6183193;23;20103;-86
2022/04/28 05:03:08;;;;;;;9.25;3.20;;;;;;;;;;6158300;23;20021;-86
2022/04/28 05:05:33;;;;;;;13.60;3.22;;;;;;;;;;6183270;23;20040;-85
2022/04/28 05:08:00;;;;;;;8.93;3.33;;;;;;;;;;6182986;23;20060;-85
2022/04/28 05:10:26;;;;;;;10.65;3.78;;;;;;;;;;6183484;23;20020;-85
2022/04/28 05:12:52;;;;;;;10.43;3.90;;;;;;;;;;6182999;23;20135;-85
2022/04/28 05:15:18;;;;;;;13.43;3.83;;;;;;;;;;6183466;23;20025;-85
2022/04/28 05:17:44;;;;;;;12.52;4.35;;;;;;;;;;6183711;23;20020;-86
2022/04/28 05:20:10;;;;;;;13.32;4.05;;;;;;;;;;6185026;23;20017;-86
2022/04/28 05:22:36;;;;;;;12.85;4.00;;;;;;;;;;6160085;23;20013;-86
2022/04/28 05:25:02;;;;;;;10.52;4.30;;;;;;;;;;6185066;23;20089;-85
2022/04/28 05:27:29;;;;;;;10.00;4.40;;;;;;;;;;6184822;23;20013;-86
2022/04/28 05:29:55;;;;;;;15.23;5.28;;;;;;;;;;6184970;23;20013;-86
2022/04/28 05:32:21;;;;;;;11.07;5.00;;;;;;;;;;6184565;23;20017;-86
2022/04/28 05:34:47;;;;;;;12.13;4.38;;;;;;;;;;6160334;23;20083;-86
2022/04/28 05:37:13;;;;;;;15.77;4.30;;;;;;;;;;6184827;23;20438;-86
2022/04/28 05:39:40;;;;;;;12.98;3.88;;;;;;;;;;6159523;23;20458;-86
2022/04/28 05:42:07;;;;;;;13.52;4.40;;;;;;;;;;6184424;23;20017;-85
2022/04/28 05:47:19;;;;;;;9.50;4.05;;;;;;;;;;6184475;23;20446;-86
2022/04/28 05:49:49;;;;;;;17.58;4.32;;;;;;;;;;6186041;23;20045;-86
2022/04/28 05:52:15;;;;;;;13.75;4.15;;;;;;;;;;6184376;23;20102;-87
2022/04/28 05:54:41;;;;;;;15.07;4.05;;;;;;;;;;6184610;23;20013;-86
2022/04/28 05:57:07;;;;;;;11.55;3.90;;;;;;;;;;6184483;23;20083;-85
2022/04/28 05:59:33;;;;;;;9.48;3.50;;;;;;;;;;6183980;23;20084;-86
2022/04/28 06:01:59;;;;;;;11.68;3.10;;;;;;;;;;6184278;23;20040;-86
2022/04/28 06:04:25;;;;;;;11.25;3.60;;;;;;;;;;6159328;23;20041;-86
2022/04/28 06:06:51;;;;;;;11.80;3.13;;;;;;;;;;6184208;23;20017;-85
2022/04/28 06:09:17;;;;;;;10.10;2.78;;;;;;;;;;6184435;23;20442;-86
2022/04/28 06:11:43;;;;;;;8.80;3.10;;;;;;;;;;6184179;23;20136;-86
2022/04/28 06:14:09;;;;;;;12.23;2.70;;;;;;;;;;6184022;23;20091;-85
2022/04/28 06:16:36;;;;;;;13.25;3.03;;;;;;;;;;6184231;23;20021;-85
2022/04/28 06:19:02;;;;;;;10.73;3.28;;;;;;;;;;6184097;23;20017;-86
2022/04/28 06:21:28;;;;;;;11.43;2.63;;;;;;;;;;6159596;23;20116;-86
2022/04/28 06:23:54;;;;;;;14.70;3.03;;;;;;;;;;6183959;23;20013;-85
2022/04/28 06:26:20;;;;;;;10.23;2.53;;;;;;;;;;6183927;23;20013;-86
2022/04/28 06:28:46;;;;;;;12.40;2.38;;;;;;;;;;6183629;23;20071;-85
2022/04/28 06:31:12;;;;;;;11.05;2.13;;;;;;;;;;6159169;23;20324;-85
2022/04/28 06:33:41;;;;;;;7.75;1.70;;;;;;;;;;6158760;23;20056;-86
2022/04/28 06:36:07;;;;;;;15.98;2.70;;;;;;;;;;6184129;23;20016;-86
2022/04/28 06:38:33;;;;;;;10.32;2.20;;;;;;;;;;6183863;23;20017;-86
2022/04/28 06:40:59;;;;;;;8.52;1.70;;;;;;;;;;6184398;23;20385;-86
2022/04/28 06:43:25;;;;;;;11.32;1.92;;;;;;;;;;6183808;23;20334;-86
2022/04/28 06:48:36;;;;;;;9.13;2.00;;;;;;;;;;6183722;23;20024;-85
2022/04/28 06:51:02;;;;;;;10.40;2.13;;;;;;;;;;6183603;23;20442;-87
2022/04/28 06:53:28;;;;;;;12.07;2.30;;;;;;;;;;6159053;23;20095;-86
2022/04/28 06:55:54;;;;;;;12.50;2.10;;;;;;;;;;6183861;23;20454;-86
2022/04/28 06:58:21;;;;;;;8.80;2.10;;;;;;;;;;6183598;23;20104;-86
2022/04/28 07:00:49;;;;;;;9.88;2.10;;;;;;;;;;6183671;23;20013;-86
2022/04/28 07:03:15;;;;;;;8.85;1.90;;;;;;;;;;6183678;23;20052;-85
2022/04/28 07:05:41;;;;;;;11.15;2.45;;;;;;;;;;6183650;23;20474;-85
2022/04/28 07:08:07;;;;;;;12.55;2.10;;;;;;;;;;6183502;23;20013;-87
2022/04/28 07:10:37;;;;;;;11.70;1.98;;;;;;;;;;6158626;23;20445;-85
2022/04/28 07:13:03;;;;;;;12.43;2.70;;;;;;;;;;6158509;23;20009;-86
2022/04/28 07:15:29;;;;;;;10.35;2.55;;;;;;;;;;6183649;23;20021;-86
2022/04/28 07:17:55;;;;;;;11.05;2.10;;;;;;;;;;6183653;23;20024;-86
2022/04/28 07:20:21;;;;;;;9.23;2.10;;;;;;;;;;6183037;23;20013;-85
2022/04/28 07:22:47;;;;;;;9.05;2.35;;;;;;;;;;6158815;23;20017;-86
2022/04/28 07:25:13;;;;;;;8.85;1.88;;;;;;;;;;6183194;23;20403;-85
2022/04/28 07:27:39;;;;;;;8.52;1.95;;;;;;;;;;6183435;23;20016;-85
2022/04/28 07:30:05;;;;;;;10.88;2.38;;;;;;;;;;6158425;23;20013;-85
2022/04/28 07:32:32;;;;;;;7.65;1.63;;;;;;;;;;6183282;23;20021;-86
2022/04/28 07:34:58;;;;;;;12.00;1.98;;;;;;;;;;6183024;23;20028;-86
2022/04/28 07:37:24;;;;;;;8.38;1.55;;;;;;;;;;6183353;23;20016;-85
2022/04/28 07:39:50;;;;;;;9.70;1.95;;;;;;;;;;6182669;23;20112;-85
2022/04/28 07:42:16;;;;;;;7.57;1.60;;;;;;;;;;6183727;23;20021;-88
2022/04/28 07:44:42;;;;;;;10.60;1.90;;;;;;;;;;6182828;23;20009;-88
2022/04/28 07:47:08;;;;;;;10.65;1.77;;;;;;;;;;6183608;23;20087;-85
2022/04/28 07:49:36;;;;;;;9.85;1.80;;;;;;;;;;6183212;23;20045;-86
2022/04/28 07:52:02;;;;;;;8.30;1.70;;;;;;;;;;6158823;23;20087;-86
2022/04/28 07:54:28;;;;;;;7.18;1.77;;;;;;;;;;6183372;23;20009;-86
2022/04/28 07:56:54;;;;;;;8.52;1.70;;;;;;;;;;6183467;23;20013;-85
2022/04/28 07:59:20;;;;;;;11.20;2.10;;;;;;;;;;6158500;23;20342;-85
2022/04/28 08:01:46;;;;;;;7.97;2.00;;;;;;;;;;6183401;23;20027;-85
2022/04/28 08:04:12;;;;;;;8.70;2.13;;;;;;;;;;6183303;23;20071;-86
2022/04/28 08:06:38;;;;;;;19.35;2.67;;;;;;;;;;6183664;23;20017;-85
2022/04/28 08:09:04;;;;;;;8.82;2.25;;;;;;;;;;6183217;23;20331;-85
2022/04/28 08:11:31;;;;;;;9.32;2.08;;;;;;;;;;6183414;23;20020;-85
2022/04/28 08:13:57;;;;;;;11.43;2.28;;;;;;;;;;6183251;23;20342;-87
2022/04/28 08:16:23;;;;;;;7.80;1.85;;;;;;;;;;6158682;23;20027;-85
2022/04/28 08:18:49;;;;;;;5.88;1.52;;;;;;;;;;6183145;23;20017;-84
2022/04/28 08:21:15;;;;;;;9.82;2.00;;;;;;;;;;6183411;23;20017;-85
2022/04/28 08:23:41;;;;;;;11.82;2.03;;;;;;;;;;6158308;23;20023;-85
2022/04/28 08:26:07;;;;;;;8.75;1.92;;;;;;;;;;6158497;23;20013;-85
2022/04/28 08:28:33;;;;;;;9.48;2.03;;;;;;;;;;6183427;23;20070;-85
2022/04/28 08:31:00;;;;;;;9.18;1.80;;;;;;;;;;6183050;23;20013;-85
2022/04/28 08:33:26;;;;;;;8.20;2.00;;;;;;;;;;6183161;23;20028;-85
2022/04/28 08:35:52;;;;;;;9.90;1.70;;;;;;;;;;6183047;23;20101;-85
2022/04/28 08:38:18;;;;;;;9.93;2.22;;;;;;;;;;6158341;23;20024;-86
2022/04/28 08:40:47;;;;;;;11.18;2.30;;;;;;;;;;6183060;23;20019;-87
2022/04/28 08:43:14;;;;;;;9.77;2.22;;;;;;;;;;6183248;23;20469;-88
2022/04/28 08:46:50;;;;;;;12.00;2.28;;;;;;;;;;6158052;23;20013;-87
2022/04/28 08:48:30;;;;;;;11.70;1.38;;;;;;;;;;6183254;23;20068;-87
2022/04/28 08:50:57;;;;;;;7.70;1.90;;;;;;;;;;6182788;23;20451;-87
2022/04/28 08:53:23;;;;;;;8.80;2.00;;;;;;;;;;6185404;23;20012;-87
2022/04/28 08:55:49;;;;;;;12.45;2.05;;;;;;;;;;6183889;23;20020;-87
2022/04/28 08:58:15;;;;;;;10.15;2.45;;;;;;;;;;6185273;23;20021;-86
2022/04/28 09:00:41;;;;;;;12.75;2.50;;;;;;;;;;6160105;23;20013;-86
2022/04/28 09:03:07;;;;;;;9.13;2.20;;;;;;;;;;6185169;23;20339;-86
2022/04/28 09:05:33;;;;;;;8.75;2.42;;;;;;;;;;6185010;23;20013;-86
2022/04/28 09:08:00;;;;;;;10.55;2.40;;;;;;;;;;6185128;23;20009;-86
2022/04/28 09:10:26;;;;;;;10.75;2.95;;;;;;;;;;6184844;23;20365;-85
2022/04/28 09:14:09;;;;;;;11.35;2.50;;;;;;;;;;6185132;23;20009;-85
2022/04/28 09:15:50;;;;;;;6.35;2.42;;;;;;;;;;6184697;23;20469;-86
2022/04/28 09:18:16;;;;;;;14.30;3.67;;;;;;;;;;6183340;23;20099;-85
2022/04/28 09:20:43;;;;;;;10.02;3.03;;;;;;;;;;6184808;23;20021;-86
2022/04/28 09:23:10;;;;;;;11.80;3.45;;;;;;;;;;6159021;23;20079;-86
2022/04/28 09:25:36;;;;;;;10.70;3.30;;;;;;;;;;6160043;23;20280;-85
2022/04/28 09:28:03;;;;;;;13.95;3.88;;;;;;;;;;6183812;23;20016;-86
2022/04/28 09:30:36;;;;;;;13.25;3.35;;;;;;;;;;6184169;23;20021;-86
2022/04/28 09:33:12;;;;;;;10.55;3.50;;;;;;;;;;6159896;23;20017;-85
2022/04/28 09:35:46;;;;;;;10.43;3.55;;;;;;;;;;6184523;23;20019;-86
2022/04/28 09:38:12;;;;;;;12.27;3.50;;;;;;;;;;6160039;23;20009;-86
2022/04/28 09:43:22;;;;;;;11.90;3.88;;;;;;;;;;6184993;23;20052;-86
2022/04/28 09:45:51;;;;;;;14.60;3.40;;;;;;;;;;6184515;23;20020;-86
2022/04/28 09:48:19;;;;;;;16.83;3.75;;;;;;;;;;6159919;23;20060;-85
2022/04/28 09:50:45;;;;;;;12.43;4.30;;;;;;;;;;6184380;23;20152;-86
2022/04/28 09:53:11;;;;;;;10.30;3.47;;;;;;;;;;6181578;23;20071;-86
2022/04/28 09:55:39;;;;;;;11.15;3.60;;;;;;;;;;6184509;23;20013;-86
2022/04/28 09:58:06;;;;;;;14.23;4.13;;;;;;;;;;6185262;23;20494;-86
2022/04/28 10:00:33;;;;;;;13.40;3.95;;;;;;;;;;6161510;23;20122;-86
2022/04/28 10:03:02;;;;;;;13.48;3.58;;;;;;;;;;6158323;23;20048;-86
2022/04/28 10:05:28;;;;;;;11.60;3.50;;;;;;;;;;6159524;23;20473;-87
2022/04/28 10:07:55;;;;;;;8.73;3.33;;;;;;;;;;6184682;23;20013;-87
2022/04/28 10:10:22;;;;;;;9.93;3.50;;;;;;;;;;6184376;23;20009;-85
2022/04/28 10:12:49;;;;;;;12.02;2.60;;;;;;;;;;6159787;23;20013;-86
2022/04/28 10:15:15;;;;;;;9.25;2.78;;;;;;;;;;6184427;23;20052;-87
2022/04/28 10:17:41;;;;;;;8.23;2.55;;;;;;;;;;6184631;23;20023;-86
2022/04/28 10:20:14;;;;;;;10.40;3.70;;;;;;;;;;6184080;23;20104;-87
2022/04/28 10:22:41;;;;;;;14.75;3.00;;;;;;;;;;6184177;23;20473;-87
2022/04/28 10:33:38;;;;;;;9.40;2.92;;;;;;;;;;6184311;23;20021;-86
2022/04/28 10:36:04;;;;;;;12.43;3.13;;;;;;;;;;6182764;23;20075;-87
2022/04/28 10:38:30;;;;;;;13.90;3.08;;;;;;;;;;6184366;23;20390;-86
2022/04/28 10:41:03;;;;;;;13.18;2.65;;;;;;;;;;6157893;23;20055;-86
2022/04/28 10:43:32;;;;;;;13.65;3.25;;;;;;;;;;6184050;23;20013;-86
2022/04/28 10:46:01;;;;;;;10.40;2.72;;;;;;;;;;6182545;23;20108;-86
2022/04/28 10:48:33;;;;;;;12.32;3.08;;;;;;;;;;6159548;23;20009;-86
2022/04/28 10:51:01;;;;;;;10.05;2.70;;;;;;;;;;6182751;23;20009;-88
2022/04/28 10:53:27;;;;;;;10.75;2.55;;;;;;;;;;6184347;23;20024;-88
2022/04/28 10:55:53;;;;;;;9.63;2.83;;;;;;;;;;6182858;23;20339;-86
2022/04/28 10:58:19;;;;;;;11.05;2.78;;;;;;;;;;6184153;23;20048;-87
2022/04/28 11:00:55;;;;;;;11.63;2.90;;;;;;;;;;6182881;23;20087;-87
2022/04/28 11:03:40;;;;;;;14.82;3.22;;;;;;;;;;6159214;23;20024;-87
2022/04/28 11:06:13;;;;;;;10.73;2.97;;;;;;;;;;6182718;23;20053;-86
2022/04/28 11:08:44;;;;;;;11.45;2.58;;;;;;;;;;6184224;23;20107;-87
2022/04/28 11:11:12;;;;;;;11.52;3.28;;;;;;;;;;6182400;23;20020;-86
2022/04/28 11:13:40;;;;;;;10.65;2.35;;;;;;;;;;6183982;23;20379;-86
2022/04/28 11:16:07;;;;;;;10.35;3.08;;;;;;;;;;6159011;23;20023;-87
2022/04/28 11:18:34;;;;;;;14.20;3.30;;;;;;;;;;6183949;23;20071;-86
2022/04/28 11:21:01;;;;;;;10.93;2.78;;;;;;;;;;6183718;23;20017;-86
2022/04/28 11:23:32;;;;;;;8.63;2.63;;;;;;;;;;6183997;23;20371;-86
2022/04/28 11:25:58;;;;;;;13.38;2.67;;;;;;;;;;6158924;23;20053;-86
2022/04/28 11:28:24;;;;;;;12.50;2.88;;;;;;;;;;6183915;23;20075;-85
2022/04/28 11:30:50;;;;;;;11.27;3.00;;;;;;;;;;6183691;23;20013;-85
2022/04/28 11:33:16;;;;;;;12.07;2.80;;;;;;;;;;6183776;23;20025;-86
2022/04/28 11:35:42;;;;;;;10.00;2.70;;;;;;;;;;6158872;23;20013;-87
2022/04/28 11:38:09;;;;;;;16.85;2.83;;;;;;;;;;6183879;23;20103;-87
2022/04/28 11:40:35;;;;;;;10.75;2.67;;;;;;;;;;6158789;23;20024;-86
2022/04/28 11:43:03;;;;;;;12.77;3.10;;;;;;;;;;6159098;23;20044;-86
2022/04/28 11:45:31;;;;;;;14.90;3.50;;;;;;;;;;6183666;23;20343;-86
2022/04/28 11:47:59;;;;;;;13.40;3.10;;;;;;;;;;6158653;23;20435;-87
2022/04/28 11:50:26;;;;;;;9.00;3.20;;;;;;;;;;6158813;23;20388;-85
2022/04/28 11:53:22;;;;;;;10.40;2.72;;;;;;;;;;6183473;23;20084;-86
2022/04/28 11:55:50;;;;;;;10.15;3.05;;;;;;;;;;6159010;23;20504;-85
2022/04/28 11:58:16;;;;;;;8.73;2.55;;;;;;;;;;6159033;23;20028;-86
2022/04/28 12:00:44;;;;;;;7.70;2.90;;;;;;;;;;6183593;23;20013;-86
2022/04/28 12:03:22;;;;;;;10.15;3.33;;;;;;;;;;6183541;23;20064;-87
2022/04/28 12:05:50;;;;;;;10.65;2.80;;;;;;;;;;6183391;23;20044;-86
2022/04/28 12:08:20;;;;;;;12.38;3.33;;;;;;;;;;6158749;23;20017;-86
2022/04/28 12:16:17;;;;;;;9.70;2.80;;;;;;;;;;6186039;23;20024;-87
2022/04/28 12:21:32;;;;;;;9.57;3.10;;;;;;;;;;6181663;23;20100;-85
2022/04/28 12:24:03;;;;;;;9.05;3.00;;;;;;;;;;6183459;23;20017;-86
2022/04/28 12:26:34;;;;;;;10.93;3.17;;;;;;;;;;6157982;23;20017;-85
2022/04/28 12:29:08;;;;;;;8.77;3.03;;;;;;;;;;6158707;23;20450;-86
2022/04/28 12:31:34;;;;;;;12.55;3.30;;;;;;;;;;6158120;23;20025;-85
2022/04/28 12:34:08;;;;;;;11.52;2.80;;;;;;;;;;6183513;23;20013;-86
2022/04/28 12:36:54;;;;;;;12.88;3.50;;;;;;;;;;6183351;23;20045;-88
2022/04/28 12:39:21;;;;;;;10.38;3.47;;;;;;;;;;6158676;23;20013;-87
2022/04/28 12:41:48;;;;;;;13.18;2.97;;;;;;;;;;6183213;23;20092;-85
2022/04/28 12:44:16;;;;;;;9.38;3.05;;;;;;;;;;6158784;23;20021;-85
2022/04/28 12:46:45;;;;;;;10.45;3.13;;;;;;;;;;6182942;23;20473;-86
2022/04/28 12:49:12;;;;;;;12.90;3.38;;;;;;;;;;6183350;23;20013;-85
2022/04/28 12:51:45;;;;;;;14.02;2.83;;;;;;;;;;6182844;23;20363;-85
2022/04/28 12:54:13;;;;;;;11.55;3.08;;;;;;;;;;6183312;23;20084;-87
2022/04/28 12:56:39;;;;;;;12.65;3.03;;;;;;;;;;6158287;23;20021;-85
2022/04/28 12:59:06;;;;;;;12.18;2.90;;;;;;;;;;6183381;23;20014;-87
2022/04/28 13:01:33;;;;;;;10.43;3.35;;;;;;;;;;6182891;23;20060;-86
2022/04/28 13:04:00;;;;;;;10.85;2.80;;;;;;;;;;6183168;23;20039;-86
2022/04/28 13:06:26;;;;;;;9.13;2.42;;;;;;;;;;6182965;23;20021;-85
2022/04/28 13:08:53;;;;;;;11.45;2.47;;;;;;;;;;6183386;23;20012;-86
2022/04/28 13:11:21;;;;;;;10.00;2.90;;;;;;;;;;6182616;23;20096;-87
2022/04/28 13:13:47;;;;;;;14.30;2.97;;;;;;;;;;6157156;23;20013;-87
2022/04/28 13:16:13;;;;;;;17.42;3.55;;;;;;;;;;6183198;23;20044;-86
2022/04/28 13:18:39;;;;;;;12.73;3.17;;;;;;;;;;6158179;23;20024;-88
2022/04/28 13:21:07;;;;;;;13.60;4.30;;;;;;;;;;6183148;23;20079;-86
2022/04/28 13:23:33;;;;;;;11.55;3.30;;;;;;;;;;6158140;23;20024;-86
2022/04/28 13:25:59;;;;;;;11.57;3.17;;;;;;;;;;6183095;23;20016;-86
2022/04/28 13:28:25;;;;;;;18.65;4.57;;;;;;;;;;6158509;23;20096;-86
2022/04/28 13:30:53;;;;;;;13.93;3.30;;;;;;;;;;6158438;23;20013;-84
2022/04/28 13:33:20;;;;;;;12.27;3.10;;;;;;;;;;6182824;23;20447;-89
2022/04/28 13:35:46;;;;;;;9.35;3.65;;;;;;;;;;6183337;23;20024;-86
2022/04/28 13:38:12;;;;;;;11.60;3.17;;;;;;;;;;6183191;23;20024;-87
2022/04/28 13:40:38;;;;;;;12.27;3.13;;;;;;;;;;6159994;23;20017;-85
2022/04/28 13:43:04;;;;;;;15.45;3.38;;;;;;;;;;6184736;23;20076;-86
2022/04/28 13:45:30;;;;;;;10.57;3.28;;;;;;;;;;6184783;23;20017;-87
2022/04/28 13:47:56;;;;;;;17.02;3.30;;;;;;;;;;6184643;23;20017;-86
2022/04/28 13:50:22;;;;;;;10.60;3.45;;;;;;;;;;6184772;23;20013;-87
2022/04/28 13:52:49;;;;;;;10.90;3.00;;;;;;;;;;6184705;23;20092;-86
2022/04/28 13:55:16;;;;;;;11.90;2.90;;;;;;;;;;6184869;23;20446;-87
2022/04/28 13:57:41;;;;;;;6.07;2.58;;;;;;;;;;6184559;23;20020;-87
2022/04/28 14:00:08;;;;;;;13.88;2.78;;;;;;;;;;6159820;23;20012;-85
2022/04/28 14:02:34;;;;;;;10.35;2.95;;;;;;;;;;6184427;23;20017;-85
2022/04/28 14:05:00;;;;;;;18.13;3.15;;;;;;;;;;6184658;23;20100;-87
2022/04/28 14:07:26;;;;;;;11.63;2.85;;;;;;;;;;6184469;23;20450;-86
2022/04/28 14:09:53;;;;;;;13.73;2.88;;;;;;;;;;6184709;23;20095;-86
2022/04/28 14:12:19;;;;;;;11.40;2.60;;;;;;;;;;6184449;23;20013;-85
2022/04/28 14:14:46;;;;;;;10.07;2.65;;;;;;;;;;6159815;23;20073;-89
2022/04/28 14:17:12;;;;;;;12.55;3.30;;;;;;;;;;6184854;23;20028;-89
2022/04/28 14:19:38;;;;;;;13.13;2.95;;;;;;;;;;6160080;23;20017;-87
2022/04/28 14:22:05;;;;;;;11.10;2.85;;;;;;;;;;6158529;23;20093;-86
2022/04/28 14:24:31;;;;;;;10.75;3.63;;;;;;;;;;6184287;23;20017;-86
2022/04/28 14:26:57;;;;;;;11.05;2.88;;;;;;;;;;6184962;23;20021;-86
2022/04/28 14:29:23;;;;;;;8.10;2.80;;;;;;;;;;6184181;23;20285;-86
2022/04/28 14:31:49;;;;;;;10.27;3.25;;;;;;;;;;6184147;23;20017;-86
2022/04/28 14:34:19;;;;;;;12.90;2.65;;;;;;;;;;6184274;23;20509;-86
2022/04/28 14:36:47;;;;;;;13.45;2.70;;;;;;;;;;6159474;23;20415;-86
2022/04/28 14:39:13;;;;;;;11.77;2.70;;;;;;;;;;6159328;23;20386;-86
2022/04/28 14:41:40;;;;;;;6.18;2.30;;;;;;;;;;6159610;23;20013;-87
2022/04/28 14:44:07;;;;;;;7.38;2.50;;;;;;;;;;6184013;23;20398;-86
2022/04/28 14:46:33;;;;;;;11.68;2.75;;;;;;;;;;6184201;23;20088;-86
2022/04/28 14:54:28;;;;;;;9.43;2.35;;;;;;;;;;6184039;23;20173;-85
2022/04/28 14:56:54;;;;;;;9.27;2.35;;;;;;;;;;6184199;23;20454;-86
2022/04/28 14:59:21;;;;;;;11.25;3.40;;;;;;;;;;6159017;23;20072;-86
2022/04/28 15:01:48;;;;;;;6.75;2.45;;;;;;;;;;6184154;23;20024;-86
2022/04/28 15:04:14;;;;;;;8.77;2.50;;;;;;;;;;6184295;23;20013;-86
2022/04/28 15:06:40;;;;;;;17.48;3.15;;;;;;;;;;6159215;23;20403;-86
2022/04/28 15:09:06;;;;;;;10.68;2.80;;;;;;;;;;6158933;23;20047;-86
2022/04/28 15:11:32;;;;;;;9.40;2.95;;;;;;;;;;6184078;23;20009;-85
2022/04/28 15:13:58;;;;;;;13.35;3.80;;;;;;;;;;6181526;23;20013;-86
2022/04/28 15:16:24;;;;;;;10.27;3.15;;;;;;;;;;6183950;23;20047;-85